Lalin, Spain
Current Conditions -  °F | °C
As of 5:00 AM on Thursday 18 Dec 2014 (Local Time) from LEST Reporting Station
Light Fog Light Fog  
Wind Chill: 46°   Ceiling: 2200
Heat Index: 46°   Visibility: 0.75mi
Dew Point: 46°   Wind: 1mph
Humidity: 100%   Direction: NA
Pressure: 30.45"   Gusts: NA
Location:  42.66°N, 8.11°W
Report Text: LEST 180400Z VRB01KT 1200 0500E R17/1900D R35/1700D BCFG FEW001 OVC022 08/08 Q1031 TEMPO BKN004
Loading
Personal Weather Stations






























Interactive Weather Map New forecast layout! Learn more

10-Day Weather Forecast

Advertisements
Track Severe Weather on mobile